Time;durP1;ratioP1;P1;durP2;ratioP2;P2;SDS_P1;SDS_P2;PMS_P1;PMS_P2;Temp;Humidity;BMP_temperature;BMP_pressure;BME280_temperature;BME280_humidity;BME280_pressure;Samples;Min_cycle;Max_cycle;Signal;HPM_P1;HPM_P2
2021/10/12 00:00:12;;;;;;;;;;;;;;;;;;1003272;29;995;-20
2021/10/12 00:00:45;;;;;;;;;;;;;;;;;;1003717;29;948;-19
2021/10/12 00:01:16;;;;;;;;;;;;;;;;;;1008148;29;1410;-18
2021/10/12 00:01:47;;;;;;;;;;;;;;;;;;1014877;29;1397;-19
2021/10/12 00:02:18;;;;;;;;;;;;;;;;;;1017506;29;2558;-18
2021/10/12 00:02:48;;;;;;;;;;;;;;;;;;1011650;29;1125;-18
2021/10/12 00:03:18;;;;;;;;;;;;;;;;;;1018974;29;923;-19
2021/10/12 00:03:49;;;;;;;;;;;;;;;;;;1015372;29;1119;-19
2021/10/12 00:04:19;;;;;;;;;;;;;;;;;;1010890;29;1471;-19
2021/10/12 00:04:50;;;;;;;;;;;;;;;;;;1015190;29;1001;-20
2021/10/12 00:05:21;;;;;;;;;;;;;;;;;;1003026;29;1270;-19
2021/10/12 00:05:52;;;;;;;;;;;;;;;;;;1006979;29;2016;-20
2021/10/12 00:06:23;;;;;;;;;;;;;;;;;;995599;29;1288;-19
2021/10/12 00:06:54;;;;;;;;;;;;;;;;;;995756;29;1266;-19
2021/10/12 00:07:25;;;;;;;;;;;;;;;;;;999038;29;1166;-19
2021/10/12 00:07:55;;;;;;;;;;;;;;;;;;999208;29;1252;-19
2021/10/12 00:08:26;;;;;;;;;;;;;;;;;;1003252;29;1095;-19
2021/10/12 00:08:57;;;;;;;;;;;;;;;;;;999833;29;1040;-19
2021/10/12 00:09:28;;;;;;;;;;;;;;;;;;1014962;29;1393;-19
2021/10/12 00:09:59;;;;;;;;;;;;;;;;;;1014943;29;1176;-19
2021/10/12 00:10:30;;;;;;;;;;;;;;;;;;1011364;29;1776;-19
2021/10/12 00:11:01;;;;;;;;;;;;;;;;;;1011046;29;1147;-18
2021/10/12 00:11:31;;;;;;;;;;;;;;;;;;1007587;29;1135;-19
2021/10/12 00:12:02;;;;;;;;;;;;;;;;;;1010787;29;1904;-19
2021/10/12 00:12:32;;;;;;;;;;;;;;;;;;1011220;29;1296;-20
2021/10/12 00:13:03;;;;;;;;;;;;;;;;;;1011227;29;989;-19
2021/10/12 00:13:33;;;;;;;;;;;;;;;;;;1015512;29;1300;-18
2021/10/12 00:14:04;;;;;;;;;;;;;;;;;;1015737;29;1227;-19
2021/10/12 00:14:34;;;;;;;;;;;;;;;;;;1016020;29;946;-18
2021/10/12 00:15:08;;;;;;;;;;;;;;;;;;1014778;29;1005;-19
2021/10/12 00:15:38;;;;;;;;;;;;;;;;;;999530;29;1074;-20
2021/10/12 00:16:09;;;;;;;;;;;;;;;;;;998882;29;1411;-19
2021/10/12 00:16:39;;;;;;;;;;;;;;;;;;999663;29;1129;-19
2021/10/12 00:17:10;;;;;;;;;;;;;;;;;;1003510;29;1397;-19
2021/10/12 00:17:40;;;;;;;;;;;;;;;;;;1018921;29;1121;-19
2021/10/12 00:18:11;;;;;;;;;;;;;;;;;;1022451;28;1565;-19
2021/10/12 00:18:42;;;;;;;;;;;;;;;;;;1010496;29;1537;-19
2021/10/12 00:19:15;;;;;;;;;;;;;;;;;;1010460;29;1272;-19
2021/10/12 00:19:45;;;;;;;;;;;;;;;;;;999559;29;1673;-19
2021/10/12 00:20:17;;;;;;;;;;;;;;;;;;1003746;29;1166;-19
2021/10/12 00:20:47;;;;;;;;;;;;;;;;;;1007156;29;1170;-20
2021/10/12 00:21:18;;;;;;;;;;;;;;;;;;1006139;29;1463;-19
2021/10/12 00:21:49;;;;;;;;;;;;;;;;;;1006914;29;1256;-19
2021/10/12 00:22:19;;;;;;;;;;;;;;;;;;1003617;29;1041;-19
2021/10/12 00:22:50;;;;;;;;;;;;;;;;;;1010928;29;1074;-19
2021/10/12 00:23:21;;;;;;;;;;;;;;;;;;1011459;29;1055;-20
2021/10/12 00:23:52;;;;;;;;;;;;;;;;;;1006977;29;1237;-19
2021/10/12 00:24:23;;;;;;;;;;;;;;;;;;1003852;29;1185;-20
2021/10/12 00:24:54;;;;;;;;;;;;;;;;;;1011184;29;1252;-19
2021/10/12 00:25:24;;;;;;;;;;;;;;;;;;1006961;29;1115;-19
2021/10/12 00:25:57;;;;;;;;;;;;;;;;;;1007529;29;1926;-19
2021/10/12 00:26:28;;;;;;;;;;;;;;;;;;1010445;29;993;-19
2021/10/12 00:26:58;;;;;;;;;;;;;;;;;;1004260;29;1134;-20
2021/10/12 00:27:28;;;;;;;;;;;;;;;;;;1015344;29;938;-20
2021/10/12 00:28:00;;;;;;;;;;;;;;;;;;1018495;29;1306;-20
2021/10/12 00:28:30;;;;;;;;;;;;;;;;;;1011151;29;1199;-20
2021/10/12 00:29:01;;;;;;;;;;;;;;;;;;1011014;29;1049;-20
2021/10/12 00:29:31;;;;;;;;;;;;;;;;;;1010566;29;1417;-19
2021/10/12 00:30:03;;;;;;;;;;;;;;;;;;1011083;29;1264;-18
2021/10/12 00:30:33;;;;;;;;;;;;;;;;;;1015672;29;1150;-19
2021/10/12 00:31:04;;;;;;;;;;;;;;;;;;1015382;29;1157;-19
2021/10/12 00:31:36;;;;;;;;;;;;;;;;;;1018937;29;1119;-19
2021/10/12 00:32:06;;;;;;;;;;;;;;;;;;1007020;29;1078;-18
2021/10/12 00:32:37;;;;;;;;;;;;;;;;;;1007547;29;1124;-18
2021/10/12 00:33:07;;;;;;;;;;;;;;;;;;1010435;29;1502;-19
2021/10/12 00:33:38;;;;;;;;;;;;;;;;;;1007378;29;1559;-19
2021/10/12 00:34:09;;;;;;;;;;;;;;;;;;1019046;29;1560;-18
2021/10/12 00:34:40;;;;;;;;;;;;;;;;;;1018397;29;1411;-19
2021/10/12 00:35:11;;;;;;;;;;;;;;;;;;1014755;29;1036;-20
2021/10/12 00:35:42;;;;;;;;;;;;;;;;;;1010944;29;1632;-19
2021/10/12 00:36:12;;;;;;;;;;;;;;;;;;1006493;29;1083;-19
2021/10/12 00:36:42;;;;;;;;;;;;;;;;;;1003670;29;1162;-19
2021/10/12 00:37:13;;;;;;;;;;;;;;;;;;1010858;29;1241;-19
2021/10/12 00:37:43;;;;;;;;;;;;;;;;;;1011112;29;1042;-19
2021/10/12 00:38:13;;;;;;;;;;;;;;;;;;1015836;29;847;-19
2021/10/12 00:38:44;;;;;;;;;;;;;;;;;;1019582;28;3576;-19
2021/10/12 00:39:14;;;;;;;;;;;;;;;;;;1018771;29;1284;-18
2021/10/12 00:39:45;;;;;;;;;;;;;;;;;;1019282;29;982;-19
2021/10/12 00:40:15;;;;;;;;;;;;;;;;;;1019023;29;933;-19
2021/10/12 00:40:46;;;;;;;;;;;;;;;;;;1019080;29;1101;-19
2021/10/12 00:41:17;;;;;;;;;;;;;;;;;;1014333;29;1543;-20
2021/10/12 00:41:47;;;;;;;;;;;;;;;;;;1013724;29;1095;-19
2021/10/12 00:42:18;;;;;;;;;;;;;;;;;;1011322;29;1014;-19
2021/10/12 00:42:49;;;;;;;;;;;;;;;;;;1006710;29;1537;-19
2021/10/12 00:43:25;;;;;;;;;;;;;;;;;;1014880;29;1026;-18
2021/10/12 00:43:56;;;;;;;;;;;;;;;;;;1006542;29;1420;-19
2021/10/12 00:44:27;;;;;;;;;;;;;;;;;;1007336;29;1270;-19
2021/10/12 00:44:57;;;;;;;;;;;;;;;;;;1007058;29;1288;-19
2021/10/12 00:45:28;;;;;;;;;;;;;;;;;;1008800;29;1120;-19
2021/10/12 00:45:59;;;;;;;;;;;;;;;;;;1014960;29;1993;-19
2021/10/12 00:46:29;;;;;;;;;;;;;;;;;;1010668;29;1586;-19
2021/10/12 00:47:00;;;;;;;;;;;;;;;;;;1006792;29;1145;-20
2021/10/12 00:47:30;;;;;;;;;;;;;;;;;;999758;29;1065;-18
2021/10/12 00:48:02;;;;;;;;;;;;;;;;;;1003085;29;1167;-19
2021/10/12 00:48:33;;;;;;;;;;;;;;;;;;1007811;29;839;-19
2021/10/12 00:49:04;;;;;;;;;;;;;;;;;;1015307;29;1336;-19
2021/10/12 00:49:35;;;;;;;;;;;;;;;;;;1018661;29;1181;-20
2021/10/12 00:50:06;;;;;;;;;;;;;;;;;;1018878;29;966;-19
2021/10/12 00:50:38;;;;;;;;;;;;;;;;;;1010546;29;1279;-19
2021/10/12 00:51:09;;;;;;;;;;;;;;;;;;1011344;29;1079;-19
2021/10/12 00:51:39;;;;;;;;;;;;;;;;;;1007015;29;1546;-19
2021/10/12 00:52:09;;;;;;;;;;;;;;;;;;1006974;29;1179;-20
2021/10/12 00:52:40;;;;;;;;;;;;;;;;;;1011048;29;1046;-20
2021/10/12 00:53:11;;;;;;;;;;;;;;;;;;1011161;29;1085;-19
2021/10/12 00:53:42;;;;;;;;;;;;;;;;;;1010950;29;1065;-18
2021/10/12 00:54:13;;;;;;;;;;;;;;;;;;1014974;29;1021;-19
2021/10/12 00:54:43;;;;;;;;;;;;;;;;;;998727;29;1680;-19
2021/10/12 00:55:14;;;;;;;;;;;;;;;;;;999517;29;1212;-19
2021/10/12 00:55:46;;;;;;;;;;;;;;;;;;995103;29;1717;-18
2021/10/12 00:56:16;;;;;;;;;;;;;;;;;;995669;29;985;-19
2021/10/12 00:56:47;;;;;;;;;;;;;;;;;;1003392;29;1213;-19
2021/10/12 00:57:18;;;;;;;;;;;;;;;;;;1002968;29;1322;-20
2021/10/12 00:57:50;;;;;;;;;;;;;;;;;;1007655;29;1092;-19
2021/10/12 00:58:20;;;;;;;;;;;;;;;;;;1016173;28;2455;-19
2021/10/12 00:58:53;;;;;;;;;;;;;;;;;;1014684;29;1203;-20
2021/10/12 00:59:23;;;;;;;;;;;;;;;;;;1003430;29;943;-19
2021/10/12 00:59:56;;;;;;;;;;;;;;;;;;999156;29;1128;-20
2021/10/12 01:00:26;;;;;;;;;;;;;;;;;;1000741;29;1051;-20
2021/10/12 01:00:56;;;;;;;;;;;;;;;;;;1007612;29;887;-20
2021/10/12 01:01:28;;;;;;;;;;;;;;;;;;1014760;29;1558;-20
2021/10/12 01:01:58;;;;;;;;;;;;;;;;;;1014839;29;1161;-19
2021/10/12 01:02:32;;;;;;;;;;;;;;;;;;1015071;29;930;-19
2021/10/12 01:03:03;;;;;;;;;;;;;;;;;;1015405;29;1013;-19
2021/10/12 01:03:34;;;;;;;;;;;;;;;;;;1015450;29;1607;-19
2021/10/12 01:04:04;;;;;;;;;;;;;;;;;;1018690;29;1186;-19
2021/10/12 01:04:35;;;;;;;;;;;;;;;;;;1018901;29;964;-18
2021/10/12 01:05:06;;;;;;;;;;;;;;;;;;1018842;29;1152;-19
2021/10/12 01:05:37;;;;;;;;;;;;;;;;;;1019607;28;799;-19
2021/10/12 01:06:10;;;;;;;;;;;;;;;;;;1018919;29;1981;-19
2021/10/12 01:06:41;;;;;;;;;;;;;;;;;;1018571;29;1410;-19
2021/10/12 01:07:12;;;;;;;;;;;;;;;;;;1010642;29;1181;-19
2021/10/12 01:07:42;;;;;;;;;;;;;;;;;;1002512;29;1247;-19
2021/10/12 01:08:13;;;;;;;;;;;;;;;;;;999187;29;1216;-18
2021/10/12 01:08:43;;;;;;;;;;;;;;;;;;999683;29;955;-20
2021/10/12 01:09:14;;;;;;;;;;;;;;;;;;1006678;29;1379;-19
2021/10/12 01:09:44;;;;;;;;;;;;;;;;;;1023076;28;1097;-18
2021/10/12 01:10:15;;;;;;;;;;;;;;;;;;1022603;28;1294;-19
2021/10/12 01:10:46;;;;;;;;;;;;;;;;;;1022840;28;1183;-20
2021/10/12 01:11:17;;;;;;;;;;;;;;;;;;1022674;28;1089;-19
2021/10/12 01:11:47;;;;;;;;;;;;;;;;;;1018635;29;1267;-18
2021/10/12 01:12:17;;;;;;;;;;;;;;;;;;1019004;29;938;-19
2021/10/12 01:12:49;;;;;;;;;;;;;;;;;;1018982;29;919;-19
2021/10/12 01:13:19;;;;;;;;;;;;;;;;;;1007021;29;915;-19
2021/10/12 01:13:50;;;;;;;;;;;;;;;;;;1007239;29;1156;-19
2021/10/12 01:14:20;;;;;;;;;;;;;;;;;;1007104;29;968;-19
2021/10/12 01:14:50;;;;;;;;;;;;;;;;;;1007220;29;1571;-18
2021/10/12 01:15:21;;;;;;;;;;;;;;;;;;1007200;29;1095;-19
2021/10/12 01:15:52;;;;;;;;;;;;;;;;;;1006369;29;1563;-19
2021/10/12 01:16:22;;;;;;;;;;;;;;;;;;1003208;29;1066;-19
2021/10/12 01:16:53;;;;;;;;;;;;;;;;;;1002757;29;1458;-20
2021/10/12 01:17:23;;;;;;;;;;;;;;;;;;999014;29;1258;-19
2021/10/12 01:17:54;;;;;;;;;;;;;;;;;;1003136;29;1127;-18
2021/10/12 01:18:24;;;;;;;;;;;;;;;;;;1006502;29;1410;-19
2021/10/12 01:18:59;;;;;;;;;;;;;;;;;;1003121;29;1116;-19
2021/10/12 01:19:29;;;;;;;;;;;;;;;;;;1007237;29;945;-20
2021/10/12 01:20:01;;;;;;;;;;;;;;;;;;1006611;29;1533;-19
2021/10/12 01:20:35;;;;;;;;;;;;;;;;;;1000772;29;1055;-19
2021/10/12 01:21:06;;;;;;;;;;;;;;;;;;1010162;29;1454;-19
2021/10/12 01:21:44;;;;;;;;;;;;;;;;;;1013884;29;1229;-19
2021/10/12 01:22:14;;;;;;;;;;;;;;;;;;1015977;29;1284;-20
2021/10/12 01:22:46;;;;;;;;;;;;;;;;;;1014769;29;1413;-19
2021/10/12 01:23:16;;;;;;;;;;;;;;;;;;1015250;29;1022;-19
2021/10/12 01:23:46;;;;;;;;;;;;;;;;;;1015105;29;1481;-19
2021/10/12 01:24:17;;;;;;;;;;;;;;;;;;1015054;29;1142;-19
2021/10/12 01:24:48;;;;;;;;;;;;;;;;;;1015970;29;990;-19
2021/10/12 01:25:18;;;;;;;;;;;;;;;;;;1015034;29;1368;-20
2021/10/12 01:25:49;;;;;;;;;;;;;;;;;;1014960;29;1914;-20
2021/10/12 01:26:20;;;;;;;;;;;;;;;;;;1014434;29;1449;-20
2021/10/12 01:26:50;;;;;;;;;;;;;;;;;;1014771;28;985;-20
2021/10/12 01:27:22;;;;;;;;;;;;;;;;;;1015040;29;1356;-19
2021/10/12 01:27:53;;;;;;;;;;;;;;;;;;1021942;28;1481;-20
2021/10/12 01:28:23;;;;;;;;;;;;;;;;;;1022769;28;988;-19
2021/10/12 01:28:53;;;;;;;;;;;;;;;;;;1022701;28;1474;-19
2021/10/12 01:29:24;;;;;;;;;;;;;;;;;;1022790;28;1008;-19
2021/10/12 01:29:54;;;;;;;;;;;;;;;;;;1018690;29;1006;-19
2021/10/12 01:30:25;;;;;;;;;;;;;;;;;;1018744;29;1176;-19
2021/10/12 01:30:56;;;;;;;;;;;;;;;;;;1014809;29;1055;-18
2021/10/12 01:31:27;;;;;;;;;;;;;;;;;;1014756;29;1338;-19
2021/10/12 01:31:57;;;;;;;;;;;;;;;;;;1014139;29;1401;-19
2021/10/12 01:32:28;;;;;;;;;;;;;;;;;;1014668;29;1145;-19
2021/10/12 01:32:59;;;;;;;;;;;;;;;;;;1002615;29;1826;-18
2021/10/12 01:33:30;;;;;;;;;;;;;;;;;;1006520;29;1337;-18
2021/10/12 01:34:01;;;;;;;;;;;;;;;;;;1003292;29;1130;-18
2021/10/12 01:34:31;;;;;;;;;;;;;;;;;;1006057;29;1509;-19
2021/10/12 01:35:01;;;;;;;;;;;;;;;;;;999421;29;1299;-19
2021/10/12 01:35:32;;;;;;;;;;;;;;;;;;1010965;29;982;-18
2021/10/12 01:36:02;;;;;;;;;;;;;;;;;;1014359;29;1679;-19
2021/10/12 01:36:33;;;;;;;;;;;;;;;;;;1014844;29;1114;-18
2021/10/12 01:37:03;;;;;;;;;;;;;;;;;;1014585;29;1497;-20
2021/10/12 01:37:33;;;;;;;;;;;;;;;;;;1014781;29;1378;-19
2021/10/12 01:38:04;;;;;;;;;;;;;;;;;;1015434;29;1084;-19
2021/10/12 01:38:34;;;;;;;;;;;;;;;;;;1014390;29;3688;-19
2021/10/12 01:39:05;;;;;;;;;;;;;;;;;;1015548;29;1198;-19
2021/10/12 01:39:36;;;;;;;;;;;;;;;;;;1014563;29;1454;-19
2021/10/12 01:40:07;;;;;;;;;;;;;;;;;;1002821;29;1224;-19
2021/10/12 01:40:38;;;;;;;;;;;;;;;;;;999346;29;1179;-19
2021/10/12 01:41:08;;;;;;;;;;;;;;;;;;999117;29;1286;-18
2021/10/12 01:41:39;;;;;;;;;;;;;;;;;;999657;29;1217;-24
2021/10/12 01:42:10;;;;;;;;;;;;;;;;;;1007054;29;1218;-20
2021/10/12 01:42:41;;;;;;;;;;;;;;;;;;1007059;29;1312;-19
2021/10/12 01:43:12;;;;;;;;;;;;;;;;;;1002870;29;1281;-19
2021/10/12 01:43:42;;;;;;;;;;;;;;;;;;1007311;29;1126;-19
2021/10/12 01:44:13;;;;;;;;;;;;;;;;;;1010856;29;960;-19
2021/10/12 01:44:44;;;;;;;;;;;;;;;;;;1015081;29;1162;-19
2021/10/12 01:45:15;;;;;;;;;;;;;;;;;;1014745;29;916;-19
2021/10/12 01:45:46;;;;;;;;;;;;;;;;;;1014986;29;1911;-18
2021/10/12 01:46:17;;;;;;;;;;;;;;;;;;1006416;29;1589;-19
2021/10/12 01:46:47;;;;;;;;;;;;;;;;;;1002668;29;1200;-18
2021/10/12 01:47:21;;;;;;;;;;;;;;;;;;1006577;29;1088;-19
2021/10/12 01:47:52;;;;;;;;;;;;;;;;;;1000216;29;1262;-19
2021/10/12 01:48:23;;;;;;;;;;;;;;;;;;1011579;29;1305;-18
2021/10/12 01:48:53;;;;;;;;;;;;;;;;;;1011089;29;1480;-19
2021/10/12 01:49:24;;;;;;;;;;;;;;;;;;1014673;29;1042;-19
2021/10/12 01:49:54;;;;;;;;;;;;;;;;;;1010890;29;1075;-19
2021/10/12 01:50:25;;;;;;;;;;;;;;;;;;1010656;29;1244;-19
2021/10/12 01:50:55;;;;;;;;;;;;;;;;;;1014606;29;1056;-19
2021/10/12 01:51:25;;;;;;;;;;;;;;;;;;1014982;29;1410;-19
2021/10/12 01:51:56;;;;;;;;;;;;;;;;;;1015477;29;1179;-19
2021/10/12 01:52:26;;;;;;;;;;;;;;;;;;1014894;29;1156;-19
2021/10/12 01:52:57;;;;;;;;;;;;;;;;;;1006265;29;1771;-20
2021/10/12 01:53:27;;;;;;;;;;;;;;;;;;1006884;29;1074;-19
2021/10/12 01:53:59;;;;;;;;;;;;;;;;;;1002828;29;1049;-19
2021/10/12 01:54:30;;;;;;;;;;;;;;;;;;995220;29;2258;-19
2021/10/12 01:55:01;;;;;;;;;;;;;;;;;;1007054;29;1081;-19
2021/10/12 01:55:31;;;;;;;;;;;;;;;;;;1003215;29;1450;-19
2021/10/12 01:56:02;;;;;;;;;;;;;;;;;;1010411;29;1702;-19
2021/10/12 01:56:33;;;;;;;;;;;;;;;;;;1006589;29;1030;-20
2021/10/12 01:57:03;;;;;;;;;;;;;;;;;;999026;29;1353;-20
2021/10/12 01:57:34;;;;;;;;;;;;;;;;;;1003076;29;1279;-19
2021/10/12 01:58:04;;;;;;;;;;;;;;;;;;1010790;29;1202;-20
2021/10/12 01:58:35;;;;;;;;;;;;;;;;;;1014876;29;1456;-19
2021/10/12 01:59:05;;;;;;;;;;;;;;;;;;1015351;29;976;-19
2021/10/12 01:59:36;;;;;;;;;;;;;;;;;;1015496;29;969;-19
2021/10/12 02:00:09;;;;;;;;;;;;;;;;;;1017952;29;1247;-19
2021/10/12 02:00:42;;;;;;;;;;;;;;;;;;1014944;29;1241;-19
2021/10/12 02:01:17;;;;;;;;;;;;;;;;;;1006697;29;1019;-19
2021/10/12 02:01:48;;;;;;;;;;;;;;;;;;1004329;29;1089;-20
2021/10/12 02:02:18;;;;;;;;;;;;;;;;;;1002279;29;899;-20
2021/10/12 02:02:49;;;;;;;;;;;;;;;;;;1011669;29;862;-19
2021/10/12 02:03:20;;;;;;;;;;;;;;;;;;1022711;28;1050;-19
2021/10/12 02:03:51;;;;;;;;;;;;;;;;;;1018345;29;1460;-20
2021/10/12 02:04:21;;;;;;;;;;;;;;;;;;1010713;29;1134;-20
2021/10/12 02:04:52;;;;;;;;;;;;;;;;;;1006643;29;952;-20
2021/10/12 02:05:22;;;;;;;;;;;;;;;;;;998824;29;1345;-19
2021/10/12 02:05:53;;;;;;;;;;;;;;;;;;1002941;29;1903;-19
2021/10/12 02:06:23;;;;;;;;;;;;;;;;;;1006527;29;1389;-19
2021/10/12 02:06:54;;;;;;;;;;;;;;;;;;1014513;29;1373;-18
2021/10/12 02:07:25;;;;;;;;;;;;;;;;;;1014246;29;1089;-18
2021/10/12 02:07:55;;;;;;;;;;;;;;;;;;1009407;29;1379;-18
2021/10/12 02:08:26;;;;;;;;;;;;;;;;;;1010719;29;1093;-18
2021/10/12 02:08:56;;;;;;;;;;;;;;;;;;1010221;29;1522;-19
2021/10/12 02:09:26;;;;;;;;;;;;;;;;;;1014949;29;1135;-19
2021/10/12 02:09:57;;;;;;;;;;;;;;;;;;1015294;29;1245;-18
2021/10/12 02:10:28;;;;;;;;;;;;;;;;;;1018181;29;1458;-19
2021/10/12 02:10:59;;;;;;;;;;;;;;;;;;1018262;29;1093;-19
2021/10/12 02:11:30;;;;;;;;;;;;;;;;;;1018853;29;1037;-18
2021/10/12 02:12:00;;;;;;;;;;;;;;;;;;1006014;29;1245;-19
2021/10/12 02:12:31;;;;;;;;;;;;;;;;;;1002987;29;1332;-19
2021/10/12 02:13:01;;;;;;;;;;;;;;;;;;1006440;29;1554;-18
2021/10/12 02:13:32;;;;;;;;;;;;;;;;;;1006941;29;1179;-19
2021/10/12 02:14:04;;;;;;;;;;;;;;;;;;1018135;29;1652;-19
2021/10/12 02:14:35;;;;;;;;;;;;;;;;;;1009650;29;1506;-19
2021/10/12 02:15:06;;;;;;;;;;;;;;;;;;1006768;29;1094;-19
2021/10/12 02:15:36;;;;;;;;;;;;;;;;;;1007074;29;1136;-19
2021/10/12 02:16:06;;;;;;;;;;;;;;;;;;1010611;29;1226;-19
2021/10/12 02:16:37;;;;;;;;;;;;;;;;;;1010948;29;970;-19
2021/10/12 02:17:08;;;;;;;;;;;;;;;;;;1013925;29;1477;-19
2021/10/12 02:17:39;;;;;;;;;;;;;;;;;;1010340;29;1165;-19
2021/10/12 02:18:11;;;;;;;;;;;;;;;;;;1010644;29;1276;-19
2021/10/12 02:18:41;;;;;;;;;;;;;;;;;;1010354;29;1810;-19
2021/10/12 02:19:11;;;;;;;;;;;;;;;;;;1014705;29;1294;-19
2021/10/12 02:19:42;;;;;;;;;;;;;;;;;;1015164;29;1315;-19
2021/10/12 02:20:12;;;;;;;;;;;;;;;;;;1018410;29;1111;-18
2021/10/12 02:20:42;;;;;;;;;;;;;;;;;;1018783;29;894;-19
2021/10/12 02:21:13;;;;;;;;;;;;;;;;;;1018129;29;1312;-19
2021/10/12 02:21:44;;;;;;;;;;;;;;;;;;1006702;29;1227;-19
2021/10/12 02:22:14;;;;;;;;;;;;;;;;;;1002609;29;1282;-19
2021/10/12 02:22:45;;;;;;;;;;;;;;;;;;1003029;29;1090;-19
2021/10/12 02:23:16;;;;;;;;;;;;;;;;;;1003055;29;1144;-18
2021/10/12 02:23:47;;;;;;;;;;;;;;;;;;1006440;29;1009;-19
2021/10/12 02:24:17;;;;;;;;;;;;;;;;;;999151;29;912;-19
2021/10/12 02:24:47;;;;;;;;;;;;;;;;;;999541;29;914;-19
2021/10/12 02:25:18;;;;;;;;;;;;;;;;;;998598;29;2076;-20
2021/10/12 02:25:48;;;;;;;;;;;;;;;;;;1010769;29;1986;-19
2021/10/12 02:26:19;;;;;;;;;;;;;;;;;;1010208;29;1808;-19
2021/10/12 02:26:49;;;;;;;;;;;;;;;;;;1010478;29;1180;-19
2021/10/12 02:27:19;;;;;;;;;;;;;;;;;;1010799;29;1357;-19
2021/10/12 02:27:49;;;;;;;;;;;;;;;;;;1010867;29;1351;-19
2021/10/12 02:28:20;;;;;;;;;;;;;;;;;;1014937;29;1074;-19
2021/10/12 02:28:51;;;;;;;;;;;;;;;;;;1014816;29;1356;-19
2021/10/12 02:29:21;;;;;;;;;;;;;;;;;;1006849;29;1194;-19
2021/10/12 02:29:52;;;;;;;;;;;;;;;;;;1006725;29;1159;-19
2021/10/12 02:30:22;;;;;;;;;;;;;;;;;;1006497;29;1295;-19
2021/10/12 02:30:52;;;;;;;;;;;;;;;;;;1006858;29;1021;-19
2021/10/12 02:31:23;;;;;;;;;;;;;;;;;;1011619;29;1011;-19
2021/10/12 02:31:53;;;;;;;;;;;;;;;;;;1010411;29;1158;-20
2021/10/12 02:32:24;;;;;;;;;;;;;;;;;;1010944;29;922;-19
2021/10/12 02:32:54;;;;;;;;;;;;;;;;;;1010265;29;1302;-20
2021/10/12 02:33:24;;;;;;;;;;;;;;;;;;1010870;29;1055;-19
2021/10/12 02:33:55;;;;;;;;;;;;;;;;;;1010514;29;1059;-19
2021/10/12 02:34:26;;;;;;;;;;;;;;;;;;1009039;29;1187;-19
2021/10/12 02:34:56;;;;;;;;;;;;;;;;;;1010552;29;943;-19
2021/10/12 02:35:26;;;;;;;;;;;;;;;;;;1010901;29;946;-19
2021/10/12 02:35:57;;;;;;;;;;;;;;;;;;1014549;29;946;-19
2021/10/12 02:36:27;;;;;;;;;;;;;;;;;;1014785;29;1046;-19
2021/10/12 02:36:58;;;;;;;;;;;;;;;;;;1014382;29;1333;-18
2021/10/12 02:37:29;;;;;;;;;;;;;;;;;;1014404;29;1231;-19
2021/10/12 02:37:59;;;;;;;;;;;;;;;;;;1014547;29;959;-19
2021/10/12 02:38:29;;;;;;;;;;;;;;;;;;1010118;29;3561;-20
2021/10/12 02:39:00;;;;;;;;;;;;;;;;;;1018540;29;1157;-19
2021/10/12 02:39:31;;;;;;;;;;;;;;;;;;1014167;29;1430;-19
2021/10/12 02:40:01;;;;;;;;;;;;;;;;;;1014432;29;1132;-19
2021/10/12 02:40:32;;;;;;;;;;;;;;;;;;1010621;29;1241;-19
2021/10/12 02:41:02;;;;;;;;;;;;;;;;;;1002854;29;1230;-19
2021/10/12 02:41:33;;;;;;;;;;;;;;;;;;1002968;29;1072;-19
2021/10/12 02:42:03;;;;;;;;;;;;;;;;;;1006886;29;1104;-20
2021/10/12 02:42:34;;;;;;;;;;;;;;;;;;1006626;29;1195;-19
2021/10/12 02:43:05;;;;;;;;;;;;;;;;;;1006655;29;1130;-19
2021/10/12 02:43:35;;;;;;;;;;;;;;;;;;1002313;29;1712;-19
2021/10/12 02:44:05;;;;;;;;;;;;;;;;;;999103;29;1039;-19
2021/10/12 02:44:36;;;;;;;;;;;;;;;;;;1006738;29;1085;-19
2021/10/12 02:45:07;;;;;;;;;;;;;;;;;;1010124;29;1435;-18
2021/10/12 02:45:38;;;;;;;;;;;;;;;;;;1010621;29;1131;-19
2021/10/12 02:46:08;;;;;;;;;;;;;;;;;;1014071;29;1918;-19
2021/10/12 02:46:39;;;;;;;;;;;;;;;;;;1014364;29;1210;-19
2021/10/12 02:47:10;;;;;;;;;;;;;;;;;;1010365;29;1102;-19
2021/10/12 02:47:40;;;;;;;;;;;;;;;;;;1010549;29;1176;-19
2021/10/12 02:48:10;;;;;;;;;;;;;;;;;;1009959;29;1570;-19
2021/10/12 02:48:41;;;;;;;;;;;;;;;;;;1010753;29;1025;-20
2021/10/12 02:49:11;;;;;;;;;;;;;;;;;;1011003;29;868;-19
2021/10/12 02:49:41;;;;;;;;;;;;;;;;;;1011125;29;927;-20
2021/10/12 02:50:12;;;;;;;;;;;;;;;;;;1014527;29;1170;-20
2021/10/12 02:50:43;;;;;;;;;;;;;;;;;;1014955;29;2304;-20
2021/10/12 02:51:14;;;;;;;;;;;;;;;;;;1018560;29;1025;-19
2021/10/12 02:51:45;;;;;;;;;;;;;;;;;;1017836;29;1394;-19
2021/10/12 02:52:15;;;;;;;;;;;;;;;;;;1010982;29;1142;-19
2021/10/12 02:52:45;;;;;;;;;;;;;;;;;;1014483;29;1410;-19
2021/10/12 02:53:17;;;;;;;;;;;;;;;;;;1014382;29;1217;-19
2021/10/12 02:53:49;;;;;;;;;;;;;;;;;;1014442;29;1138;-19
2021/10/12 02:54:19;;;;;;;;;;;;;;;;;;1009397;29;1564;-19
2021/10/12 02:54:50;;;;;;;;;;;;;;;;;;1002871;29;1388;-19
2021/10/12 02:55:20;;;;;;;;;;;;;;;;;;1003389;29;1119;-20
2021/10/12 02:55:51;;;;;;;;;;;;;;;;;;1006458;29;1131;-20
2021/10/12 02:56:21;;;;;;;;;;;;;;;;;;1010826;29;1111;-19
2021/10/12 02:56:52;;;;;;;;;;;;;;;;;;1010216;29;1577;-19
2021/10/12 02:57:23;;;;;;;;;;;;;;;;;;1010657;29;1017;-19
2021/10/12 02:57:53;;;;;;;;;;;;;;;;;;1002521;29;1157;-19
2021/10/12 02:58:24;;;;;;;;;;;;;;;;;;1003015;29;1060;-18
2021/10/12 02:58:54;;;;;;;;;;;;;;;;;;1006381;29;1402;-18
2021/10/12 02:59:24;;;;;;;;;;;;;;;;;;1006755;29;1420;-18
2021/10/12 02:59:55;;;;;;;;;;;;;;;;;;1019020;29;1229;-19
2021/10/12 03:00:25;;;;;;;;;;;;;;;;;;1019288;28;1280;-19
2021/10/12 03:00:55;;;;;;;;;;;;;;;;;;1019163;28;1200;-18
2021/10/12 03:01:26;;;;;;;;;;;;;;;;;;1019512;28;1005;-22
2021/10/12 03:01:57;;;;;;;;;;;;;;;;;;1018094;29;1623;-19
2021/10/12 03:02:27;;;;;;;;;;;;;;;;;;1010127;29;1424;-19
2021/10/12 03:02:58;;;;;;;;;;;;;;;;;;1010604;29;1298;-20
2021/10/12 03:03:28;;;;;;;;;;;;;;;;;;1006304;29;1522;-20
2021/10/12 03:03:59;;;;;;;;;;;;;;;;;;1006612;29;1188;-19
2021/10/12 03:04:29;;;;;;;;;;;;;;;;;;1003012;29;1178;-18
2021/10/12 03:05:00;;;;;;;;;;;;;;;;;;1002416;29;1411;-19
2021/10/12 03:05:31;;;;;;;;;;;;;;;;;;1005280;29;1228;-18
2021/10/12 03:06:01;;;;;;;;;;;;;;;;;;1002600;29;1986;-19
2021/10/12 03:06:32;;;;;;;;;;;;;;;;;;1014399;29;1277;-19
2021/10/12 03:07:02;;;;;;;;;;;;;;;;;;1010562;29;1242;-18
2021/10/12 03:07:34;;;;;;;;;;;;;;;;;;1006563;29;1518;-18
2021/10/12 03:08:04;;;;;;;;;;;;;;;;;;1010425;29;1240;-20
2021/10/12 03:08:35;;;;;;;;;;;;;;;;;;1010844;29;971;-18
2021/10/12 03:09:05;;;;;;;;;;;;;;;;;;1010098;29;1685;-18
2021/10/12 03:09:36;;;;;;;;;;;;;;;;;;1010610;29;1539;-19
2021/10/12 03:10:07;;;;;;;;;;;;;;;;;;998679;29;1600;-19
2021/10/12 03:10:37;;;;;;;;;;;;;;;;;;998894;29;1067;-19
2021/10/12 03:11:07;;;;;;;;;;;;;;;;;;999337;29;1296;-20
2021/10/12 03:11:38;;;;;;;;;;;;;;;;;;998675;29;1461;-19
2021/10/12 03:12:09;;;;;;;;;;;;;;;;;;1006618;29;1244;-18
2021/10/12 03:12:40;;;;;;;;;;;;;;;;;;1010461;29;994;-19
2021/10/12 03:13:10;;;;;;;;;;;;;;;;;;1010566;29;1138;-20
2021/10/12 03:13:41;;;;;;;;;;;;;;;;;;1006805;29;1149;-19
2021/10/12 03:14:11;;;;;;;;;;;;;;;;;;1005983;29;1453;-18
2021/10/12 03:14:43;;;;;;;;;;;;;;;;;;999096;29;1215;-19
2021/10/12 03:15:13;;;;;;;;;;;;;;;;;;995332;29;1047;-19
2021/10/12 03:15:43;;;;;;;;;;;;;;;;;;1003096;29;964;-19
2021/10/12 03:16:14;;;;;;;;;;;;;;;;;;999115;29;1476;-19
2021/10/12 03:16:45;;;;;;;;;;;;;;;;;;1006851;29;876;-19
2021/10/12 03:17:15;;;;;;;;;;;;;;;;;;1006730;29;1260;-19
2021/10/12 03:17:46;;;;;;;;;;;;;;;;;;1002803;29;1077;-19
2021/10/12 03:18:16;;;;;;;;;;;;;;;;;;1002154;29;1537;-19
2021/10/12 03:18:47;;;;;;;;;;;;;;;;;;1002701;29;1171;-19
2021/10/12 03:19:18;;;;;;;;;;;;;;;;;;1006254;29;1521;-20
2021/10/12 03:19:48;;;;;;;;;;;;;;;;;;1007366;29;1216;-19
2021/10/12 03:20:21;;;;;;;;;;;;;;;;;;1007459;29;1780;-19
2021/10/12 03:20:51;;;;;;;;;;;;;;;;;;1007282;29;1350;-20
2021/10/12 03:21:23;;;;;;;;;;;;;;;;;;1010650;29;1242;-19
2021/10/12 03:21:58;;;;;;;;;;;;;;;;;;1003689;29;1130;-19
2021/10/12 03:22:29;;;;;;;;;;;;;;;;;;1007649;29;1030;-18
2021/10/12 03:23:00;;;;;;;;;;;;;;;;;;1011935;29;1276;-19
2021/10/12 03:23:30;;;;;;;;;;;;;;;;;;1015484;29;1002;-18
2021/10/12 03:24:01;;;;;;;;;;;;;;;;;;1015347;29;1717;-20
2021/10/12 03:24:31;;;;;;;;;;;;;;;;;;1010945;29;1241;-19
2021/10/12 03:25:03;;;;;;;;;;;;;;;;;;1010939;29;1080;-19
2021/10/12 03:25:33;;;;;;;;;;;;;;;;;;1011349;29;1215;-19
2021/10/12 03:26:04;;;;;;;;;;;;;;;;;;1010597;29;1916;-19
2021/10/12 03:26:36;;;;;;;;;;;;;;;;;;1011456;29;1157;-19
2021/10/12 03:27:07;;;;;;;;;;;;;;;;;;1004010;29;1206;-19
2021/10/12 03:27:37;;;;;;;;;;;;;;;;;;1007312;29;1144;-19
2021/10/12 03:28:08;;;;;;;;;;;;;;;;;;1007536;29;1235;-18
2021/10/12 03:28:38;;;;;;;;;;;;;;;;;;1007958;29;1032;-18
2021/10/12 03:29:09;;;;;;;;;;;;;;;;;;1011185;29;1215;-19
2021/10/12 03:29:39;;;;;;;;;;;;;;;;;;1019548;29;996;-19
2021/10/12 03:30:10;;;;;;;;;;;;;;;;;;1019102;29;972;-19
2021/10/12 03:30:40;;;;;;;;;;;;;;;;;;1016930;29;1083;-19
2021/10/12 03:31:11;;;;;;;;;;;;;;;;;;1018782;29;1392;-19
2021/10/12 03:31:41;;;;;;;;;;;;;;;;;;1019272;29;1076;-19
2021/10/12 03:32:12;;;;;;;;;;;;;;;;;;1011151;29;1333;-19
2021/10/12 03:32:42;;;;;;;;;;;;;;;;;;1011452;29;937;-19
2021/10/12 03:33:14;;;;;;;;;;;;;;;;;;1011449;29;1072;-18
2021/10/12 03:33:45;;;;;;;;;;;;;;;;;;1003760;29;1607;-20
2021/10/12 03:34:16;;;;;;;;;;;;;;;;;;1010792;29;1097;-19